sensor_id;sensor_type;location;lat;lon;timestamp;P1;durP1;ratioP1;P2;durP2;ratioP2
4186;SDS011;2107;52.306;10.484;2024-02-15T00:00:01;0.00;;;0.00;;
4186;SDS011;2107;52.306;10.484;2024-02-15T00:02:28;0.00;;;0.00;;
4186;SDS011;2107;52.306;10.484;2024-02-15T00:04:55;0.00;;;0.00;;
4186;SDS011;2107;52.306;10.484;2024-02-15T00:07:22;0.00;;;0.00;;
4186;SDS011;2107;52.306;10.484;2024-02-15T00:09:51;0.00;;;0.00;;
4186;SDS011;2107;52.306;10.484;2024-02-15T00:12:18;0.00;;;0.00;;
4186;SDS011;2107;52.306;10.484;2024-02-15T00:14:45;0.00;;;0.00;;
4186;SDS011;2107;52.306;10.484;2024-02-15T00:17:13;0.00;;;0.00;;
4186;SDS011;2107;52.306;10.484;2024-02-15T00:19:40;0.00;;;0.00;;
4186;SDS011;2107;52.306;10.484;2024-02-15T00:22:07;0.00;;;0.00;;
4186;SDS011;2107;52.306;10.484;2024-02-15T00:24:36;0.00;;;0.00;;
4186;SDS011;2107;52.306;10.484;2024-02-15T00:27:04;0.00;;;0.00;;
4186;SDS011;2107;52.306;10.484;2024-02-15T00:29:31;0.00;;;0.00;;
4186;SDS011;2107;52.306;10.484;2024-02-15T00:31:59;0.00;;;0.00;;
4186;SDS011;2107;52.306;10.484;2024-02-15T00:34:26;0.00;;;0.00;;
4186;SDS011;2107;52.306;10.484;2024-02-15T00:36:53;0.00;;;0.00;;
4186;SDS011;2107;52.306;10.484;2024-02-15T00:39:19;0.00;;;0.00;;
4186;SDS011;2107;52.306;10.484;2024-02-15T00:41:46;0.00;;;0.00;;
4186;SDS011;2107;52.306;10.484;2024-02-15T00:44:15;0.00;;;0.00;;
4186;SDS011;2107;52.306;10.484;2024-02-15T00:46:42;0.00;;;0.00;;
4186;SDS011;2107;52.306;10.484;2024-02-15T00:49:09;0.00;;;0.00;;
4186;SDS011;2107;52.306;10.484;2024-02-15T00:51:36;0.00;;;0.00;;
4186;SDS011;2107;52.306;10.484;2024-02-15T00:54:03;0.00;;;0.00;;
4186;SDS011;2107;52.306;10.484;2024-02-15T00:56:30;0.00;;;0.00;;
4186;SDS011;2107;52.306;10.484;2024-02-15T00:58:58;0.00;;;0.00;;
4186;SDS011;2107;52.306;10.484;2024-02-15T01:01:28;0.00;;;0.00;;
4186;SDS011;2107;52.306;10.484;2024-02-15T01:03:55;0.00;;;0.00;;
4186;SDS011;2107;52.306;10.484;2024-02-15T01:06:22;0.00;;;0.00;;
4186;SDS011;2107;52.306;10.484;2024-02-15T01:08:49;0.00;;;0.00;;
4186;SDS011;2107;52.306;10.484;2024-02-15T01:11:16;0.00;;;0.00;;
4186;SDS011;2107;52.306;10.484;2024-02-15T01:13:43;0.00;;;0.00;;
4186;SDS011;2107;52.306;10.484;2024-02-15T01:16:10;0.00;;;0.00;;
4186;SDS011;2107;52.306;10.484;2024-02-15T01:18:38;0.00;;;0.00;;
4186;SDS011;2107;52.306;10.484;2024-02-15T01:21:05;0.00;;;0.00;;
4186;SDS011;2107;52.306;10.484;2024-02-15T01:23:32;0.00;;;0.00;;
4186;SDS011;2107;52.306;10.484;2024-02-15T01:26:00;0.00;;;0.00;;
4186;SDS011;2107;52.306;10.484;2024-02-15T01:28:27;0.00;;;0.00;;
4186;SDS011;2107;52.306;10.484;2024-02-15T01:30:54;0.00;;;0.00;;
4186;SDS011;2107;52.306;10.484;2024-02-15T01:33:21;0.00;;;0.00;;
4186;SDS011;2107;52.306;10.484;2024-02-15T01:35:49;0.00;;;0.00;;
4186;SDS011;2107;52.306;10.484;2024-02-15T01:38:16;0.00;;;0.00;;
4186;SDS011;2107;52.306;10.484;2024-02-15T01:40:42;0.00;;;0.00;;
4186;SDS011;2107;52.306;10.484;2024-02-15T01:43:09;0.00;;;0.00;;
4186;SDS011;2107;52.306;10.484;2024-02-15T01:45:36;0.00;;;0.00;;
4186;SDS011;2107;52.306;10.484;2024-02-15T01:48:03;0.00;;;0.00;;
4186;SDS011;2107;52.306;10.484;2024-02-15T01:50:32;0.00;;;0.00;;
4186;SDS011;2107;52.306;10.484;2024-02-15T01:53:01;0.00;;;0.00;;
4186;SDS011;2107;52.306;10.484;2024-02-15T01:55:33;0.00;;;0.00;;
4186;SDS011;2107;52.306;10.484;2024-02-15T01:58:00;0.00;;;0.00;;
4186;SDS011;2107;52.306;10.484;2024-02-15T02:00:27;0.00;;;0.00;;
4186;SDS011;2107;52.306;10.484;2024-02-15T02:02:54;0.00;;;0.00;;
4186;SDS011;2107;52.306;10.484;2024-02-15T02:05:27;0.00;;;0.00;;
4186;SDS011;2107;52.306;10.484;2024-02-15T02:07:54;0.00;;;0.00;;
4186;SDS011;2107;52.306;10.484;2024-02-15T02:10:25;0.00;;;0.00;;
4186;SDS011;2107;52.306;10.484;2024-02-15T02:12:56;0.00;;;0.00;;
4186;SDS011;2107;52.306;10.484;2024-02-15T02:15:23;0.00;;;0.00;;
4186;SDS011;2107;52.306;10.484;2024-02-15T02:17:50;0.00;;;0.00;;
4186;SDS011;2107;52.306;10.484;2024-02-15T02:20:17;0.00;;;0.00;;
4186;SDS011;2107;52.306;10.484;2024-02-15T02:22:45;0.00;;;0.00;;
4186;SDS011;2107;52.306;10.484;2024-02-15T02:25:18;0.00;;;0.00;;
4186;SDS011;2107;52.306;10.484;2024-02-15T02:27:45;0.00;;;0.00;;
4186;SDS011;2107;52.306;10.484;2024-02-15T02:30:14;0.00;;;0.00;;
4186;SDS011;2107;52.306;10.484;2024-02-15T02:32:44;0.00;;;0.00;;
4186;SDS011;2107;52.306;10.484;2024-02-15T02:35:11;0.00;;;0.00;;
4186;SDS011;2107;52.306;10.484;2024-02-15T02:37:38;0.00;;;0.00;;
4186;SDS011;2107;52.306;10.484;2024-02-15T02:40:06;0.00;;;0.00;;
4186;SDS011;2107;52.306;10.484;2024-02-15T02:42:36;0.00;;;0.00;;
4186;SDS011;2107;52.306;10.484;2024-02-15T02:45:13;0.00;;;0.00;;
4186;SDS011;2107;52.306;10.484;2024-02-15T02:47:39;0.00;;;0.00;;
4186;SDS011;2107;52.306;10.484;2024-02-15T02:50:07;0.00;;;0.00;;
4186;SDS011;2107;52.306;10.484;2024-02-15T02:52:34;0.00;;;0.00;;
4186;SDS011;2107;52.306;10.484;2024-02-15T02:55:04;0.00;;;0.00;;
4186;SDS011;2107;52.306;10.484;2024-02-15T02:57:33;0.00;;;0.00;;
4186;SDS011;2107;52.306;10.484;2024-02-15T03:00:02;0.00;;;0.00;;
4186;SDS011;2107;52.306;10.484;2024-02-15T03:02:33;0.00;;;0.00;;
4186;SDS011;2107;52.306;10.484;2024-02-15T03:05:01;0.00;;;0.00;;
4186;SDS011;2107;52.306;10.484;2024-02-15T03:07:32;0.00;;;0.00;;
4186;SDS011;2107;52.306;10.484;2024-02-15T03:09:59;0.00;;;0.00;;
4186;SDS011;2107;52.306;10.484;2024-02-15T03:12:26;0.00;;;0.00;;
4186;SDS011;2107;52.306;10.484;2024-02-15T03:14:56;0.00;;;0.00;;
4186;SDS011;2107;52.306;10.484;2024-02-15T03:17:23;0.00;;;0.00;;
4186;SDS011;2107;52.306;10.484;2024-02-15T03:19:51;0.00;;;0.00;;
4186;SDS011;2107;52.306;10.484;2024-02-15T03:22:17;0.00;;;0.00;;
4186;SDS011;2107;52.306;10.484;2024-02-15T03:24:44;0.00;;;0.00;;
4186;SDS011;2107;52.306;10.484;2024-02-15T03:27:11;0.00;;;0.00;;
4186;SDS011;2107;52.306;10.484;2024-02-15T03:29:38;0.00;;;0.00;;
4186;SDS011;2107;52.306;10.484;2024-02-15T03:32:07;0.00;;;0.00;;
4186;SDS011;2107;52.306;10.484;2024-02-15T03:34:34;0.00;;;0.00;;
4186;SDS011;2107;52.306;10.484;2024-02-15T03:37:01;0.00;;;0.00;;
4186;SDS011;2107;52.306;10.484;2024-02-15T03:39:29;0.00;;;0.00;;
4186;SDS011;2107;52.306;10.484;2024-02-15T03:41:58;0.00;;;0.00;;
4186;SDS011;2107;52.306;10.484;2024-02-15T03:44:24;0.00;;;0.00;;
4186;SDS011;2107;52.306;10.484;2024-02-15T03:46:52;0.00;;;0.00;;
4186;SDS011;2107;52.306;10.484;2024-02-15T03:49:21;0.00;;;0.00;;
4186;SDS011;2107;52.306;10.484;2024-02-15T03:51:48;0.00;;;0.00;;
4186;SDS011;2107;52.306;10.484;2024-02-15T03:54:15;0.00;;;0.00;;
4186;SDS011;2107;52.306;10.484;2024-02-15T03:56:46;0.00;;;0.00;;
4186;SDS011;2107;52.306;10.484;2024-02-15T03:59:17;0.00;;;0.00;;
4186;SDS011;2107;52.306;10.484;2024-02-15T04:01:50;0.00;;;0.00;;
4186;SDS011;2107;52.306;10.484;2024-02-15T04:04:17;0.00;;;0.00;;
4186;SDS011;2107;52.306;10.484;2024-02-15T04:06:47;0.00;;;0.00;;
4186;SDS011;2107;52.306;10.484;2024-02-15T04:09:14;0.00;;;0.00;;
4186;SDS011;2107;52.306;10.484;2024-02-15T04:11:42;0.00;;;0.00;;
4186;SDS011;2107;52.306;10.484;2024-02-15T04:14:09;0.00;;;0.00;;
4186;SDS011;2107;52.306;10.484;2024-02-15T04:16:36;0.00;;;0.00;;
4186;SDS011;2107;52.306;10.484;2024-02-15T04:19:03;0.00;;;0.00;;
4186;SDS011;2107;52.306;10.484;2024-02-15T04:21:29;0.00;;;0.00;;
4186;SDS011;2107;52.306;10.484;2024-02-15T04:23:57;0.00;;;0.00;;
4186;SDS011;2107;52.306;10.484;2024-02-15T04:26:24;0.00;;;0.00;;
4186;SDS011;2107;52.306;10.484;2024-02-15T04:28:52;0.00;;;0.00;;
4186;SDS011;2107;52.306;10.484;2024-02-15T04:31:19;0.00;;;0.00;;
4186;SDS011;2107;52.306;10.484;2024-02-15T04:33:51;0.00;;;0.00;;
4186;SDS011;2107;52.306;10.484;2024-02-15T04:36:18;0.00;;;0.00;;
4186;SDS011;2107;52.306;10.484;2024-02-15T04:38:48;0.00;;;0.00;;
4186;SDS011;2107;52.306;10.484;2024-02-15T04:41:17;0.00;;;0.00;;
4186;SDS011;2107;52.306;10.484;2024-02-15T04:43:48;0.00;;;0.00;;
4186;SDS011;2107;52.306;10.484;2024-02-15T04:46:15;0.00;;;0.00;;
4186;SDS011;2107;52.306;10.484;2024-02-15T04:48:41;0.00;;;0.00;;
4186;SDS011;2107;52.306;10.484;2024-02-15T04:51:09;0.00;;;0.00;;
4186;SDS011;2107;52.306;10.484;2024-02-15T04:53:36;0.00;;;0.00;;
4186;SDS011;2107;52.306;10.484;2024-02-15T04:56:04;0.00;;;0.00;;
4186;SDS011;2107;52.306;10.484;2024-02-15T04:58:38;0.00;;;0.00;;
4186;SDS011;2107;52.306;10.484;2024-02-15T05:01:11;0.00;;;0.00;;
4186;SDS011;2107;52.306;10.484;2024-02-15T05:03:38;0.00;;;0.00;;
4186;SDS011;2107;52.306;10.484;2024-02-15T05:06:05;0.00;;;0.00;;
4186;SDS011;2107;52.306;10.484;2024-02-15T05:08:33;0.00;;;0.00;;
4186;SDS011;2107;52.306;10.484;2024-02-15T05:11:01;0.00;;;0.00;;
4186;SDS011;2107;52.306;10.484;2024-02-15T05:13:30;0.00;;;0.00;;
4186;SDS011;2107;52.306;10.484;2024-02-15T05:15:58;0.00;;;0.00;;
4186;SDS011;2107;52.306;10.484;2024-02-15T05:18:25;0.00;;;0.00;;
4186;SDS011;2107;52.306;10.484;2024-02-15T05:20:52;0.00;;;0.00;;
4186;SDS011;2107;52.306;10.484;2024-02-15T05:23:19;0.00;;;0.00;;
4186;SDS011;2107;52.306;10.484;2024-02-15T05:25:46;0.00;;;0.00;;
4186;SDS011;2107;52.306;10.484;2024-02-15T05:28:16;0.00;;;0.00;;
4186;SDS011;2107;52.306;10.484;2024-02-15T05:30:43;0.00;;;0.00;;
4186;SDS011;2107;52.306;10.484;2024-02-15T05:33:11;0.00;;;0.00;;
4186;SDS011;2107;52.306;10.484;2024-02-15T05:35:38;0.00;;;0.00;;
4186;SDS011;2107;52.306;10.484;2024-02-15T05:38:06;0.00;;;0.00;;
4186;SDS011;2107;52.306;10.484;2024-02-15T05:40:33;0.00;;;0.00;;
4186;SDS011;2107;52.306;10.484;2024-02-15T05:43:00;0.00;;;0.00;;
4186;SDS011;2107;52.306;10.484;2024-02-15T05:45:28;0.00;;;0.00;;
4186;SDS011;2107;52.306;10.484;2024-02-15T05:47:57;0.00;;;0.00;;
4186;SDS011;2107;52.306;10.484;2024-02-15T05:50:26;0.00;;;0.00;;
4186;SDS011;2107;52.306;10.484;2024-02-15T05:52:55;0.00;;;0.00;;
4186;SDS011;2107;52.306;10.484;2024-02-15T05:55:23;0.00;;;0.00;;
4186;SDS011;2107;52.306;10.484;2024-02-15T05:57:51;0.00;;;0.00;;
4186;SDS011;2107;52.306;10.484;2024-02-15T06:00:19;0.00;;;0.00;;
4186;SDS011;2107;52.306;10.484;2024-02-15T06:02:46;0.00;;;0.00;;
4186;SDS011;2107;52.306;10.484;2024-02-15T06:05:14;0.00;;;0.00;;
4186;SDS011;2107;52.306;10.484;2024-02-15T06:07:43;0.00;;;0.00;;
4186;SDS011;2107;52.306;10.484;2024-02-15T06:10:11;0.00;;;0.00;;
4186;SDS011;2107;52.306;10.484;2024-02-15T06:12:38;0.00;;;0.00;;
4186;SDS011;2107;52.306;10.484;2024-02-15T06:15:05;0.00;;;0.00;;
4186;SDS011;2107;52.306;10.484;2024-02-15T06:17:39;0.00;;;0.00;;
4186;SDS011;2107;52.306;10.484;2024-02-15T06:20:09;0.00;;;0.00;;
4186;SDS011;2107;52.306;10.484;2024-02-15T06:22:39;0.00;;;0.00;;
4186;SDS011;2107;52.306;10.484;2024-02-15T06:25:08;0.00;;;0.00;;
4186;SDS011;2107;52.306;10.484;2024-02-15T06:27:36;0.00;;;0.00;;
4186;SDS011;2107;52.306;10.484;2024-02-15T06:30:05;0.00;;;0.00;;
4186;SDS011;2107;52.306;10.484;2024-02-15T06:32:50;0.00;;;0.00;;
4186;SDS011;2107;52.306;10.484;2024-02-15T06:35:35;0.00;;;0.00;;
4186;SDS011;2107;52.306;10.484;2024-02-15T06:38:19;0.00;;;0.00;;
4186;SDS011;2107;52.306;10.484;2024-02-15T06:41:05;0.00;;;0.00;;
4186;SDS011;2107;52.306;10.484;2024-02-15T06:43:32;0.00;;;0.00;;
4186;SDS011;2107;52.306;10.484;2024-02-15T06:46:00;0.00;;;0.00;;
4186;SDS011;2107;52.306;10.484;2024-02-15T06:48:26;0.00;;;0.00;;
4186;SDS011;2107;52.306;10.484;2024-02-15T06:50:53;0.00;;;0.00;;
4186;SDS011;2107;52.306;10.484;2024-02-15T06:53:20;0.00;;;0.00;;
4186;SDS011;2107;52.306;10.484;2024-02-15T06:55:47;0.00;;;0.00;;
4186;SDS011;2107;52.306;10.484;2024-02-15T06:58:16;0.00;;;0.00;;
4186;SDS011;2107;52.306;10.484;2024-02-15T07:00:42;0.00;;;0.00;;
4186;SDS011;2107;52.306;10.484;2024-02-15T07:03:10;0.00;;;0.00;;
4186;SDS011;2107;52.306;10.484;2024-02-15T07:05:37;0.00;;;0.00;;
4186;SDS011;2107;52.306;10.484;2024-02-15T07:08:06;0.00;;;0.00;;
4186;SDS011;2107;52.306;10.484;2024-02-15T07:10:36;0.00;;;0.00;;
4186;SDS011;2107;52.306;10.484;2024-02-15T07:13:03;0.00;;;0.00;;
4186;SDS011;2107;52.306;10.484;2024-02-15T07:15:32;0.00;;;0.00;;
4186;SDS011;2107;52.306;10.484;2024-02-15T07:18:03;0.00;;;0.00;;
4186;SDS011;2107;52.306;10.484;2024-02-15T07:20:31;0.00;;;0.00;;
4186;SDS011;2107;52.306;10.484;2024-02-15T07:22:58;0.00;;;0.00;;
4186;SDS011;2107;52.306;10.484;2024-02-15T07:25:25;0.00;;;0.00;;
4186;SDS011;2107;52.306;10.484;2024-02-15T07:27:52;0.00;;;0.00;;
4186;SDS011;2107;52.306;10.484;2024-02-15T07:30:19;0.00;;;0.00;;
4186;SDS011;2107;52.306;10.484;2024-02-15T07:32:49;0.00;;;0.00;;
4186;SDS011;2107;52.306;10.484;2024-02-15T07:35:16;0.00;;;0.00;;
4186;SDS011;2107;52.306;10.484;2024-02-15T07:37:50;0.00;;;0.00;;
4186;SDS011;2107;52.306;10.484;2024-02-15T07:40:18;0.00;;;0.00;;
4186;SDS011;2107;52.306;10.484;2024-02-15T07:42:47;0.00;;;0.00;;
4186;SDS011;2107;52.306;10.484;2024-02-15T07:45:14;0.00;;;0.00;;
4186;SDS011;2107;52.306;10.484;2024-02-15T07:47:41;0.00;;;0.00;;
4186;SDS011;2107;52.306;10.484;2024-02-15T07:50:09;0.00;;;0.00;;
4186;SDS011;2107;52.306;10.484;2024-02-15T07:52:38;0.00;;;0.00;;
4186;SDS011;2107;52.306;10.484;2024-02-15T07:55:04;0.00;;;0.00;;
4186;SDS011;2107;52.306;10.484;2024-02-15T07:57:34;0.00;;;0.00;;
4186;SDS011;2107;52.306;10.484;2024-02-15T08:00:01;0.00;;;0.00;;
4186;SDS011;2107;52.306;10.484;2024-02-15T08:02:30;0.00;;;0.00;;
4186;SDS011;2107;52.306;10.484;2024-02-15T08:04:59;0.00;;;0.00;;
4186;SDS011;2107;52.306;10.484;2024-02-15T08:07:31;0.00;;;0.00;;
4186;SDS011;2107;52.306;10.484;2024-02-15T08:10:00;0.00;;;0.00;;
4186;SDS011;2107;52.306;10.484;2024-02-15T08:12:28;0.00;;;0.00;;
4186;SDS011;2107;52.306;10.484;2024-02-15T08:14:55;0.00;;;0.00;;
4186;SDS011;2107;52.306;10.484;2024-02-15T08:17:23;0.00;;;0.00;;
4186;SDS011;2107;52.306;10.484;2024-02-15T08:19:50;0.00;;;0.00;;
4186;SDS011;2107;52.306;10.484;2024-02-15T08:22:17;0.00;;;0.00;;
4186;SDS011;2107;52.306;10.484;2024-02-15T08:24:51;0.00;;;0.00;;
4186;SDS011;2107;52.306;10.484;2024-02-15T08:27:20;0.00;;;0.00;;
4186;SDS011;2107;52.306;10.484;2024-02-15T08:29:48;0.00;;;0.00;;
4186;SDS011;2107;52.306;10.484;2024-02-15T08:32:15;0.00;;;0.00;;
4186;SDS011;2107;52.306;10.484;2024-02-15T08:34:42;0.00;;;0.00;;
4186;SDS011;2107;52.306;10.484;2024-02-15T08:37:08;0.00;;;0.00;;
4186;SDS011;2107;52.306;10.484;2024-02-15T08:39:36;0.00;;;0.00;;
4186;SDS011;2107;52.306;10.484;2024-02-15T08:42:04;0.00;;;0.00;;
4186;SDS011;2107;52.306;10.484;2024-02-15T08:44:31;0.00;;;0.00;;
4186;SDS011;2107;52.306;10.484;2024-02-15T08:46:58;0.00;;;0.00;;
4186;SDS011;2107;52.306;10.484;2024-02-15T08:49:25;0.10;;;0.10;;
4186;SDS011;2107;52.306;10.484;2024-02-15T08:51:52;0.10;;;0.10;;
4186;SDS011;2107;52.306;10.484;2024-02-15T08:54:19;0.10;;;0.10;;
4186;SDS011;2107;52.306;10.484;2024-02-15T08:56:46;0.10;;;0.10;;
4186;SDS011;2107;52.306;10.484;2024-02-15T08:59:15;0.10;;;0.10;;
4186;SDS011;2107;52.306;10.484;2024-02-15T09:01:42;0.10;;;0.10;;
4186;SDS011;2107;52.306;10.484;2024-02-15T09:04:11;0.10;;;0.10;;
4186;SDS011;2107;52.306;10.484;2024-02-15T09:06:38;0.10;;;0.10;;
4186;SDS011;2107;52.306;10.484;2024-02-15T09:09:06;0.10;;;0.10;;
4186;SDS011;2107;52.306;10.484;2024-02-15T09:11:34;0.20;;;0.20;;
4186;SDS011;2107;52.306;10.484;2024-02-15T09:14:00;0.20;;;0.20;;
4186;SDS011;2107;52.306;10.484;2024-02-15T09:16:29;0.20;;;0.20;;
4186;SDS011;2107;52.306;10.484;2024-02-15T09:18:56;0.20;;;0.20;;
4186;SDS011;2107;52.306;10.484;2024-02-15T09:21:25;0.20;;;0.20;;
4186;SDS011;2107;52.306;10.484;2024-02-15T09:23:54;0.20;;;0.20;;
4186;SDS011;2107;52.306;10.484;2024-02-15T09:26:21;0.20;;;0.20;;
4186;SDS011;2107;52.306;10.484;2024-02-15T09:28:48;0.20;;;0.20;;
4186;SDS011;2107;52.306;10.484;2024-02-15T09:31:15;0.30;;;0.30;;
4186;SDS011;2107;52.306;10.484;2024-02-15T09:33:43;0.27;;;0.27;;
4186;SDS011;2107;52.306;10.484;2024-02-15T09:36:10;0.30;;;0.30;;
4186;SDS011;2107;52.306;10.484;2024-02-15T09:38:38;0.30;;;0.30;;
4186;SDS011;2107;52.306;10.484;2024-02-15T09:41:05;0.40;;;0.40;;
4186;SDS011;2107;52.306;10.484;2024-02-15T09:43:34;0.40;;;0.40;;
4186;SDS011;2107;52.306;10.484;2024-02-15T09:46:01;0.30;;;0.30;;
4186;SDS011;2107;52.306;10.484;2024-02-15T09:48:29;0.20;;;0.20;;
4186;SDS011;2107;52.306;10.484;2024-02-15T09:50:59;0.30;;;0.30;;
4186;SDS011;2107;52.306;10.484;2024-02-15T09:53:27;0.30;;;0.30;;
4186;SDS011;2107;52.306;10.484;2024-02-15T09:55:55;0.30;;;0.30;;
4186;SDS011;2107;52.306;10.484;2024-02-15T09:58:29;0.30;;;0.30;;
4186;SDS011;2107;52.306;10.484;2024-02-15T10:00:58;0.37;;;0.37;;
4186;SDS011;2107;52.306;10.484;2024-02-15T10:03:28;0.40;;;0.40;;
4186;SDS011;2107;52.306;10.484;2024-02-15T10:05:57;0.40;;;0.40;;
4186;SDS011;2107;52.306;10.484;2024-02-15T10:08:25;0.50;;;0.50;;
4186;SDS011;2107;52.306;10.484;2024-02-15T10:11:04;0.40;;;0.40;;
4186;SDS011;2107;52.306;10.484;2024-02-15T10:13:33;0.40;;;0.40;;
4186;SDS011;2107;52.306;10.484;2024-02-15T10:16:03;0.37;;;0.37;;
4186;SDS011;2107;52.306;10.484;2024-02-15T10:18:41;0.30;;;0.30;;
4186;SDS011;2107;52.306;10.484;2024-02-15T10:21:08;0.30;;;0.30;;
4186;SDS011;2107;52.306;10.484;2024-02-15T10:23:37;0.20;;;0.20;;
4186;SDS011;2107;52.306;10.484;2024-02-15T10:26:18;0.30;;;0.30;;
4186;SDS011;2107;52.306;10.484;2024-02-15T10:28:49;0.30;;;0.30;;
4186;SDS011;2107;52.306;10.484;2024-02-15T10:31:32;0.30;;;0.30;;
4186;SDS011;2107;52.306;10.484;2024-02-15T10:34:01;0.50;;;0.50;;
4186;SDS011;2107;52.306;10.484;2024-02-15T10:36:30;0.60;;;0.60;;
4186;SDS011;2107;52.306;10.484;2024-02-15T10:39:11;0.40;;;0.40;;
4186;SDS011;2107;52.306;10.484;2024-02-15T10:41:42;0.40;;;0.40;;
4186;SDS011;2107;52.306;10.484;2024-02-15T10:44:11;0.40;;;0.40;;
4186;SDS011;2107;52.306;10.484;2024-02-15T10:46:41;0.40;;;0.40;;
4186;SDS011;2107;52.306;10.484;2024-02-15T10:49:09;0.50;;;0.50;;
4186;SDS011;2107;52.306;10.484;2024-02-15T10:51:36;0.60;;;0.60;;
4186;SDS011;2107;52.306;10.484;2024-02-15T10:54:11;0.70;;;0.70;;
4186;SDS011;2107;52.306;10.484;2024-02-15T10:56:41;0.57;;;0.57;;
4186;SDS011;2107;52.306;10.484;2024-02-15T10:59:17;0.60;;;0.60;;
4186;SDS011;2107;52.306;10.484;2024-02-15T11:01:45;0.60;;;0.60;;
4186;SDS011;2107;52.306;10.484;2024-02-15T11:04:15;0.50;;;0.50;;
4186;SDS011;2107;52.306;10.484;2024-02-15T11:06:46;0.50;;;0.50;;
4186;SDS011;2107;52.306;10.484;2024-02-15T11:09:18;0.50;;;0.50;;
4186;SDS011;2107;52.306;10.484;2024-02-15T11:11:47;0.40;;;0.40;;
4186;SDS011;2107;52.306;10.484;2024-02-15T11:14:26;0.40;;;0.40;;
4186;SDS011;2107;52.306;10.484;2024-02-15T11:16:53;0.40;;;0.40;;
4186;SDS011;2107;52.306;10.484;2024-02-15T11:19:40;0.40;;;0.40;;
4186;SDS011;2107;52.306;10.484;2024-02-15T11:22:09;0.30;;;0.30;;
4186;SDS011;2107;52.306;10.484;2024-02-15T11:24:46;0.30;;;0.30;;
4186;SDS011;2107;52.306;10.484;2024-02-15T11:27:23;0.30;;;0.30;;
4186;SDS011;2107;52.306;10.484;2024-02-15T11:29:53;0.20;;;0.20;;
4186;SDS011;2107;52.306;10.484;2024-02-15T11:32:40;0.30;;;0.30;;
4186;SDS011;2107;52.306;10.484;2024-02-15T11:35:10;0.20;;;0.20;;
4186;SDS011;2107;52.306;10.484;2024-02-15T11:37:51;0.20;;;0.20;;
4186;SDS011;2107;52.306;10.484;2024-02-15T11:40:25;0.30;;;0.30;;
4186;SDS011;2107;52.306;10.484;2024-02-15T11:42:54;0.30;;;0.30;;
4186;SDS011;2107;52.306;10.484;2024-02-15T11:45:24;0.33;;;0.33;;
4186;SDS011;2107;52.306;10.484;2024-02-15T11:47:52;0.20;;;0.20;;
4186;SDS011;2107;52.306;10.484;2024-02-15T11:50:21;0.20;;;0.20;;
4186;SDS011;2107;52.306;10.484;2024-02-15T11:52:49;0.20;;;0.20;;
4186;SDS011;2107;52.306;10.484;2024-02-15T11:55:18;0.20;;;0.20;;
4186;SDS011;2107;52.306;10.484;2024-02-15T11:57:57;0.30;;;0.30;;
4186;SDS011;2107;52.306;10.484;2024-02-15T12:00:28;0.20;;;0.20;;
4186;SDS011;2107;52.306;10.484;2024-02-15T12:03:13;0.20;;;0.20;;
4186;SDS011;2107;52.306;10.484;2024-02-15T12:05:59;0.20;;;0.20;;
4186;SDS011;2107;52.306;10.484;2024-02-15T12:08:44;0.20;;;0.20;;
4186;SDS011;2107;52.306;10.484;2024-02-15T12:11:28;0.10;;;0.10;;
4186;SDS011;2107;52.306;10.484;2024-02-15T12:14:14;0.13;;;0.13;;
4186;SDS011;2107;52.306;10.484;2024-02-15T12:17:00;0.10;;;0.10;;
4186;SDS011;2107;52.306;10.484;2024-02-15T12:19:44;0.10;;;0.10;;
4186;SDS011;2107;52.306;10.484;2024-02-15T12:22:14;0.00;;;0.00;;
4186;SDS011;2107;52.306;10.484;2024-02-15T12:24:41;0.00;;;0.00;;
4186;SDS011;2107;52.306;10.484;2024-02-15T12:27:09;0.00;;;0.00;;
4186;SDS011;2107;52.306;10.484;2024-02-15T12:29:38;0.00;;;0.00;;
4186;SDS011;2107;52.306;10.484;2024-02-15T12:32:05;0.00;;;0.00;;
4186;SDS011;2107;52.306;10.484;2024-02-15T12:34:32;0.00;;;0.00;;
4186;SDS011;2107;52.306;10.484;2024-02-15T12:37:05;0.00;;;0.00;;
4186;SDS011;2107;52.306;10.484;2024-02-15T12:39:33;0.00;;;0.00;;
4186;SDS011;2107;52.306;10.484;2024-02-15T12:42:02;0.00;;;0.00;;
4186;SDS011;2107;52.306;10.484;2024-02-15T12:44:29;0.00;;;0.00;;
4186;SDS011;2107;52.306;10.484;2024-02-15T12:47:00;0.00;;;0.00;;
4186;SDS011;2107;52.306;10.484;2024-02-15T12:49:29;0.00;;;0.00;;
4186;SDS011;2107;52.306;10.484;2024-02-15T12:55:06;0.00;;;0.00;;
4186;SDS011;2107;52.306;10.484;2024-02-15T12:57:37;0.00;;;0.00;;
4186;SDS011;2107;52.306;10.484;2024-02-15T13:00:06;0.00;;;0.00;;
4186;SDS011;2107;52.306;10.484;2024-02-15T13:02:40;0.10;;;0.10;;
4186;SDS011;2107;52.306;10.484;2024-02-15T13:05:08;0.00;;;0.00;;
4186;SDS011;2107;52.306;10.484;2024-02-15T13:07:35;0.10;;;0.10;;
4186;SDS011;2107;52.306;10.484;2024-02-15T13:10:03;0.10;;;0.10;;
4186;SDS011;2107;52.306;10.484;2024-02-15T13:12:32;0.10;;;0.10;;
4186;SDS011;2107;52.306;10.484;2024-02-15T13:15:01;0.10;;;0.10;;
4186;SDS011;2107;52.306;10.484;2024-02-15T13:17:29;0.10;;;0.10;;
4186;SDS011;2107;52.306;10.484;2024-02-15T13:20:00;0.10;;;0.10;;
4186;SDS011;2107;52.306;10.484;2024-02-15T13:22:31;0.10;;;0.10;;
4186;SDS011;2107;52.306;10.484;2024-02-15T13:24:59;0.20;;;0.20;;
4186;SDS011;2107;52.306;10.484;2024-02-15T13:27:28;0.10;;;0.10;;
4186;SDS011;2107;52.306;10.484;2024-02-15T13:29:55;0.10;;;0.10;;
4186;SDS011;2107;52.306;10.484;2024-02-15T13:32:23;0.20;;;0.20;;
4186;SDS011;2107;52.306;10.484;2024-02-15T13:34:50;0.10;;;0.10;;
4186;SDS011;2107;52.306;10.484;2024-02-15T13:37:22;0.20;;;0.20;;
4186;SDS011;2107;52.306;10.484;2024-02-15T13:39:49;0.10;;;0.10;;
4186;SDS011;2107;52.306;10.484;2024-02-15T13:42:16;0.10;;;0.10;;
4186;SDS011;2107;52.306;10.484;2024-02-15T13:44:44;0.10;;;0.10;;
4186;SDS011;2107;52.306;10.484;2024-02-15T13:47:11;0.10;;;0.10;;
4186;SDS011;2107;52.306;10.484;2024-02-15T13:49:38;0.10;;;0.10;;
4186;SDS011;2107;52.306;10.484;2024-02-15T13:52:05;0.10;;;0.10;;
4186;SDS011;2107;52.306;10.484;2024-02-15T13:54:34;0.10;;;0.10;;
4186;SDS011;2107;52.306;10.484;2024-02-15T13:57:00;0.10;;;0.10;;
4186;SDS011;2107;52.306;10.484;2024-02-15T13:59:28;0.10;;;0.10;;
4186;SDS011;2107;52.306;10.484;2024-02-15T14:01:55;0.00;;;0.00;;
4186;SDS011;2107;52.306;10.484;2024-02-15T14:04:23;0.00;;;0.00;;
4186;SDS011;2107;52.306;10.484;2024-02-15T14:06:50;0.10;;;0.10;;
4186;SDS011;2107;52.306;10.484;2024-02-15T14:09:19;0.00;;;0.00;;
4186;SDS011;2107;52.306;10.484;2024-02-15T14:11:52;0.10;;;0.10;;
4186;SDS011;2107;52.306;10.484;2024-02-15T14:14:20;0.10;;;0.10;;
4186;SDS011;2107;52.306;10.484;2024-02-15T14:16:47;0.00;;;0.00;;
4186;SDS011;2107;52.306;10.484;2024-02-15T14:19:14;0.10;;;0.10;;
4186;SDS011;2107;52.306;10.484;2024-02-15T14:21:41;0.10;;;0.10;;
4186;SDS011;2107;52.306;10.484;2024-02-15T14:24:10;0.10;;;0.10;;
4186;SDS011;2107;52.306;10.484;2024-02-15T14:26:37;0.10;;;0.10;;
4186;SDS011;2107;52.306;10.484;2024-02-15T14:29:05;0.10;;;0.10;;
4186;SDS011;2107;52.306;10.484;2024-02-15T14:31:32;0.10;;;0.10;;
4186;SDS011;2107;52.306;10.484;2024-02-15T14:34:16;0.20;;;0.20;;
4186;SDS011;2107;52.306;10.484;2024-02-15T14:36:45;0.10;;;0.10;;
4186;SDS011;2107;52.306;10.484;2024-02-15T14:39:12;0.20;;;0.20;;
4186;SDS011;2107;52.306;10.484;2024-02-15T14:41:40;0.20;;;0.20;;
4186;SDS011;2107;52.306;10.484;2024-02-15T14:44:09;0.20;;;0.20;;
4186;SDS011;2107;52.306;10.484;2024-02-15T14:46:37;0.20;;;0.20;;
4186;SDS011;2107;52.306;10.484;2024-02-15T14:49:05;0.20;;;0.20;;
4186;SDS011;2107;52.306;10.484;2024-02-15T14:51:33;0.20;;;0.20;;
4186;SDS011;2107;52.306;10.484;2024-02-15T14:54:02;0.20;;;0.20;;
4186;SDS011;2107;52.306;10.484;2024-02-15T14:56:29;0.20;;;0.20;;
4186;SDS011;2107;52.306;10.484;2024-02-15T14:58:58;0.20;;;0.20;;
4186;SDS011;2107;52.306;10.484;2024-02-15T15:01:26;0.20;;;0.20;;
4186;SDS011;2107;52.306;10.484;2024-02-15T15:03:54;0.20;;;0.20;;
4186;SDS011;2107;52.306;10.484;2024-02-15T15:06:23;0.20;;;0.20;;
4186;SDS011;2107;52.306;10.484;2024-02-15T15:09:07;0.20;;;0.20;;
4186;SDS011;2107;52.306;10.484;2024-02-15T15:11:52;0.30;;;0.30;;
4186;SDS011;2107;52.306;10.484;2024-02-15T15:14:36;0.20;;;0.20;;